createdAt,value
2018-09-15T00:00:44.551Z,100766.25
2018-09-15T00:01:50.756Z,100774.70
2018-09-15T00:02:57.008Z,100770.69
2018-09-15T00:04:03.256Z,100765.50
2018-09-15T00:05:09.466Z,100771.98
2018-09-15T00:06:15.665Z,100775.13
2018-09-15T00:07:21.894Z,100776.66
2018-09-15T00:08:28.107Z,100767.30
2018-09-15T00:09:34.358Z,100771.41
2018-09-15T00:10:41.475Z,100764.37
2018-09-15T00:11:48.350Z,100760.22
2018-09-15T00:12:54.365Z,100767.73
2018-09-15T00:14:00.620Z,100760.14
2018-09-15T00:15:06.641Z,100769.23
2018-09-15T00:16:12.868Z,100766.39
2018-09-15T00:17:19.104Z,100766.57
2018-09-15T00:18:24.968Z,100766.98
2018-09-15T00:19:31.213Z,100762.66
2018-09-15T00:20:37.430Z,100767.09
2018-09-15T00:21:43.678Z,100766.58
2018-09-15T00:22:49.930Z,100760.66
2018-09-15T00:23:56.173Z,100766.50
2018-09-15T00:25:02.384Z,100762.79
2018-09-15T00:26:08.266Z,100763.36
2018-09-15T00:27:14.486Z,100764.42
2018-09-15T00:28:20.761Z,100766.58
2018-09-15T00:29:26.985Z,100768.63
2018-09-15T00:30:33.236Z,100770.77
2018-09-15T00:31:39.462Z,100772.59
2018-09-15T00:32:45.745Z,100774.24
2018-09-15T00:33:51.998Z,100782.20
2018-09-15T00:34:58.249Z,100780.25
2018-09-15T00:36:04.475Z,100778.56
2018-09-15T00:37:10.710Z,100775.91
2018-09-15T00:38:16.956Z,100774.76
2018-09-15T00:39:23.204Z,100774.87
2018-09-15T00:40:29.429Z,100778.27
2018-09-15T00:41:35.739Z,100772.55
2018-09-15T00:42:42.134Z,100771.73
2018-09-15T00:43:48.375Z,100772.80
2018-09-15T00:44:54.591Z,100771.42
2018-09-15T00:46:00.835Z,100766.19
2018-09-15T00:47:06.711Z,100763.31
2018-09-15T00:48:12.953Z,100761.81
2018-09-15T00:49:19.218Z,100758.55
2018-09-15T00:50:25.069Z,100757.94
2018-09-15T00:51:31.289Z,100762.48
2018-09-15T00:52:37.547Z,100759.91
2018-09-15T00:53:43.778Z,100759.51
2018-09-15T00:54:50.010Z,100760.37
2018-09-15T00:55:56.244Z,100756.22
2018-09-15T00:57:02.442Z,100754.83
2018-09-15T00:58:08.680Z,100754.02
2018-09-15T00:59:14.913Z,100745.45
2018-09-15T01:00:20.901Z,100755.05
2018-09-15T01:01:26.109Z,100749.09
2018-09-15T01:02:32.331Z,100748.07
2018-09-15T01:03:38.573Z,100743.61
2018-09-15T01:04:44.849Z,100753.56
2018-09-15T01:05:51.110Z,100761.95
2018-09-15T01:06:57.365Z,100752.29
2018-09-15T01:08:03.599Z,100749.58
2018-09-15T01:09:09.495Z,100747.75
2018-09-15T01:10:15.562Z,100749.77
2018-09-15T01:11:21.780Z,100751.70
2018-09-15T01:12:28.011Z,100760.34
2018-09-15T01:13:34.272Z,100761.11
2018-09-15T01:14:40.476Z,100765.39
2018-09-15T01:15:46.734Z,100761.81
2018-09-15T01:16:52.963Z,100766.84
2018-09-15T01:17:59.195Z,100764.61
2018-09-15T01:19:04.757Z,100772.59
2018-09-15T01:20:10.813Z,100772.70
2018-09-15T01:21:16.874Z,100770.67
2018-09-15T01:22:22.884Z,100770.42
2018-09-15T01:23:29.119Z,100777.93
2018-09-15T01:24:35.404Z,100776.66
2018-09-15T01:25:41.349Z,100773.42
2018-09-15T01:26:47.555Z,100766.33
2018-09-15T01:27:53.799Z,100773.45
2018-09-15T01:28:59.789Z,100770.80
2018-09-15T01:30:05.051Z,100767.80
2018-09-15T01:31:11.312Z,100768.87
2018-09-15T01:32:17.537Z,100768.16
2018-09-15T01:33:23.772Z,100761.05
2018-09-15T01:34:30.029Z,100755.27
2018-09-15T01:35:36.300Z,100759.78
2018-09-15T01:36:42.554Z,100761.01
2018-09-15T01:37:48.781Z,100767.52
2018-09-15T01:38:55.047Z,100765.41
2018-09-15T01:40:01.289Z,100771.91
2018-09-15T01:41:07.546Z,100776.98
2018-09-15T01:42:13.778Z,100776.53
2018-09-15T01:43:20.024Z,100781.48
2018-09-15T01:44:25.950Z,100776.94
2018-09-15T01:45:32.004Z,100776.44
2018-09-15T01:46:38.242Z,100773.25
2018-09-15T01:47:44.460Z,100779.59
2018-09-15T01:48:50.367Z,100775.44
2018-09-15T01:49:56.378Z,100781.23
2018-09-15T01:51:02.606Z,100782.84
2018-09-15T01:52:08.649Z,100787.19
2018-09-15T01:53:14.902Z,100781.80
2018-09-15T01:54:21.156Z,100787.62
2018-09-15T01:55:27.609Z,100787.14
2018-09-15T01:56:33.857Z,100782.28
2018-09-15T01:57:39.820Z,100784.50
2018-09-15T01:58:46.210Z,100778.63
2018-09-15T01:59:52.436Z,100782.95
2018-09-15T02:00:58.655Z,100788.34
2018-09-15T02:02:04.687Z,100785.70
2018-09-15T02:03:10.636Z,100790.84
2018-09-15T02:04:16.881Z,100796.84
2018-09-15T02:05:23.140Z,100791.91
2018-09-15T02:06:29.405Z,100796.13
2018-09-15T02:07:35.622Z,100801.16
2018-09-15T02:08:41.508Z,100804.48
2018-09-15T02:09:47.759Z,100801.17
2018-09-15T02:10:53.974Z,100804.55
2018-09-15T02:12:00.193Z,100804.56
2018-09-15T02:13:06.394Z,100806.50
2018-09-15T02:14:12.637Z,100809.82
2018-09-15T02:15:18.878Z,100809.87
2018-09-15T02:16:25.178Z,100814.13
2018-09-15T02:17:31.658Z,100810.75
2018-09-15T02:18:37.908Z,100815.41
2018-09-15T02:19:44.162Z,100813.16
2018-09-15T02:20:50.394Z,100812.12
2018-09-15T02:21:56.681Z,100814.38
2018-09-15T02:23:02.910Z,100817.85
2018-09-15T02:24:09.390Z,100817.93
2018-09-15T02:25:15.647Z,100818.70
2018-09-15T02:26:21.886Z,100818.58
2018-09-15T02:27:28.100Z,100818.12
2018-09-15T02:28:34.340Z,100817.75
2018-09-15T02:29:40.624Z,100815.86
2018-09-15T02:30:46.848Z,100815.27
2018-09-15T02:31:53.136Z,100809.55
2018-09-15T02:32:59.360Z,100810.20
2018-09-15T02:34:05.577Z,100809.59
2018-09-15T02:35:11.888Z,100809.78
2018-09-15T02:36:17.974Z,100811.73
2018-09-15T02:37:24.295Z,100808.98
2018-09-15T02:38:30.520Z,100808.19
2018-09-15T02:39:36.808Z,100807.63
2018-09-15T02:40:43.050Z,100812.84
2018-09-15T02:41:49.287Z,100811.14
2018-09-15T02:42:55.500Z,100807.72
2018-09-15T02:44:01.728Z,100803.67
2018-09-15T02:45:07.631Z,100805.39
2018-09-15T02:46:13.919Z,100808.97
2018-09-15T02:47:20.159Z,100810.69
2018-09-15T02:48:26.418Z,100814.13
2018-09-15T02:49:32.650Z,100809.34
2018-09-15T02:50:38.955Z,100805.38
2018-09-15T02:51:45.181Z,100804.59
2018-09-15T02:52:51.420Z,100801.67
2018-09-15T02:53:57.652Z,100803.22
2018-09-15T02:55:03.567Z,100811.19
2018-09-15T02:56:12.825Z,100810.23
2018-09-15T02:57:19.044Z,100804.62
2018-09-15T02:58:24.954Z,100806.35
2018-09-15T02:59:31.177Z,100802.98
2018-09-15T03:00:37.129Z,100804.34
2018-09-15T03:01:43.052Z,100799.39
2018-09-15T03:02:49.277Z,100801.34
2018-09-15T03:03:55.488Z,100797.31
2018-09-15T03:05:01.770Z,100799.09
2018-09-15T03:06:08.030Z,100796.58
2018-09-15T03:07:14.390Z,100795.63
2018-09-15T03:08:20.648Z,100797.47
2018-09-15T03:09:26.892Z,100795.82
2018-09-15T03:10:33.198Z,100803.88
2018-09-15T03:11:39.920Z,100805.20
2018-09-15T03:12:46.237Z,100807.55
2018-09-15T03:13:52.496Z,100805.96
2018-09-15T03:14:58.743Z,100806.63
2018-09-15T03:16:04.998Z,100807.41
2018-09-15T03:17:11.241Z,100808.30
2018-09-15T03:18:17.471Z,100806.08
2018-09-15T03:19:24.145Z,100813.30
2018-09-15T03:20:35.606Z,100811.31
2018-09-15T03:21:41.593Z,100815.75
2018-09-15T03:22:47.813Z,100817.55
2018-09-15T03:23:54.082Z,100817.77
2018-09-15T03:25:00.318Z,100817.84
2018-09-15T03:26:06.356Z,100817.88
2018-09-15T03:27:12.562Z,100814.41
2018-09-15T03:28:18.800Z,100820.28
2018-09-15T03:29:25.028Z,100817.97
2018-09-15T03:30:31.317Z,100812.77
2018-09-15T03:31:37.582Z,100815.66
2018-09-15T03:32:43.839Z,100813.09
2018-09-15T03:33:50.070Z,100812.63
2018-09-15T03:34:56.304Z,100816.65
2018-09-15T03:36:02.567Z,100814.90
2018-09-15T03:37:08.804Z,100812.38
2018-09-15T03:38:15.108Z,100815.77
2018-09-15T03:39:21.340Z,100822.36
2018-09-15T03:40:27.594Z,100824.61
2018-09-15T03:41:33.852Z,100823.48
2018-09-15T03:42:40.278Z,100830.42
2018-09-15T03:43:46.520Z,100830.05
2018-09-15T03:44:52.745Z,100831.07
2018-09-15T03:45:59.000Z,100838.62
2018-09-15T03:47:05.262Z,100833.97
2018-09-15T03:48:11.527Z,100843.05
2018-09-15T03:49:17.753Z,100836.20
2018-09-15T03:50:24.007Z,100837.20
2018-09-15T03:51:30.267Z,100836.51
2018-09-15T03:52:36.476Z,100833.16
2018-09-15T03:53:42.729Z,100834.49
2018-09-15T03:54:54.092Z,100832.52
2018-09-15T03:55:59.992Z,100834.98
2018-09-15T03:57:05.881Z,100830.78
2018-09-15T03:58:12.132Z,100830.51
2018-09-15T03:59:18.360Z,100836.15
2018-09-15T04:00:24.615Z,100843.17
2018-09-15T04:01:30.875Z,100840.29
2018-09-15T04:02:37.148Z,100838.58
2018-09-15T04:03:50.327Z,100844.05
2018-09-15T04:04:55.993Z,100841.11
2018-09-15T04:06:02.243Z,100844.41
2018-09-15T04:07:08.478Z,100843.25
2018-09-15T04:08:14.705Z,100842.98
2018-09-15T04:09:20.960Z,100845.24
2018-09-15T04:10:27.223Z,100849.75
2018-09-15T04:11:33.508Z,100844.42
2018-09-15T04:12:39.719Z,100849.03
2018-09-15T04:13:45.933Z,100846.36
2018-09-15T04:14:52.163Z,100852.00
2018-09-15T04:15:58.416Z,100856.41
2018-09-15T04:17:04.686Z,100863.13
2018-09-15T04:18:10.674Z,100865.18
2018-09-15T04:19:16.899Z,100866.18
2018-09-15T04:20:22.781Z,100870.87
2018-09-15T04:21:29.040Z,100872.64
2018-09-15T04:22:35.231Z,100867.32
2018-09-15T04:23:41.485Z,100873.53
2018-09-15T04:24:47.724Z,100876.92
2018-09-15T04:25:53.935Z,100877.72
2018-09-15T04:27:00.158Z,100880.47
2018-09-15T04:28:06.385Z,100889.19
2018-09-15T04:29:12.620Z,100887.31
2018-09-15T04:30:18.859Z,100884.75
2018-09-15T04:31:25.138Z,100886.25
2018-09-15T04:32:31.395Z,100887.78
2018-09-15T04:33:37.622Z,100885.20
2018-09-15T04:34:44.257Z,100884.50
2018-09-15T04:35:50.527Z,100886.81
2018-09-15T04:36:56.778Z,100887.38
2018-09-15T04:38:02.996Z,100885.19
2018-09-15T04:39:08.925Z,100886.42
2018-09-15T04:40:15.257Z,100886.69
2018-09-15T04:41:21.521Z,100890.16
2018-09-15T04:42:27.755Z,100884.84
2018-09-15T04:43:33.992Z,100893.84
2018-09-15T04:44:40.643Z,100897.58
2018-09-15T04:45:46.961Z,100889.50
2018-09-15T04:46:53.594Z,100895.30
2018-09-15T04:48:00.676Z,100891.88
2018-09-15T04:49:07.383Z,100893.20
2018-09-15T04:50:13.667Z,100900.70
2018-09-15T04:51:19.916Z,100899.65
2018-09-15T04:52:26.162Z,100905.59
2018-09-15T04:53:32.420Z,100907.14
2018-09-15T04:54:38.643Z,100900.31
2018-09-15T04:55:44.879Z,100895.13
2018-09-15T04:56:51.195Z,100904.02
2018-09-15T04:57:57.441Z,100905.52
2018-09-15T04:59:03.307Z,100907.07
2018-09-15T05:00:09.581Z,100908.79
2018-09-15T05:01:15.517Z,100907.55
2018-09-15T05:02:21.788Z,100909.83
2018-09-15T05:03:27.838Z,100906.74
2018-09-15T05:04:34.079Z,100910.27
2018-09-15T05:05:40.316Z,100912.19
2018-09-15T05:06:46.594Z,100912.16
2018-09-15T05:07:52.908Z,100915.17
2018-09-15T05:08:59.190Z,100919.61
2018-09-15T05:10:06.426Z,100912.81
2018-09-15T05:11:13.326Z,100912.64
2018-09-15T05:12:19.605Z,100910.17
2018-09-15T05:13:26.098Z,100911.55
2018-09-15T05:14:32.351Z,100915.17
2018-09-15T05:15:38.587Z,100921.64
2018-09-15T05:16:44.885Z,100918.89
2018-09-15T05:17:51.176Z,100922.06
2018-09-15T05:18:57.434Z,100925.72
2018-09-15T05:20:03.295Z,100918.86
2018-09-15T05:21:09.571Z,100923.75
2018-09-15T05:22:15.852Z,100924.72
2018-09-15T05:23:23.356Z,100922.84
2018-09-15T05:24:29.841Z,100918.94
2018-09-15T05:25:36.153Z,100923.53
2018-09-15T05:26:42.641Z,100930.58
2018-09-15T05:27:49.076Z,100923.93
2018-09-15T05:28:56.188Z,100933.56
2018-09-15T05:30:02.517Z,100932.33
2018-09-15T05:31:08.976Z,100932.83
2018-09-15T05:32:15.407Z,100935.92
2018-09-15T05:33:22.031Z,100940.05
2018-09-15T05:34:28.601Z,100943.69
2018-09-15T05:35:35.720Z,100944.87
2018-09-15T05:36:43.101Z,100945.50
2018-09-15T05:37:49.722Z,100948.33
2018-09-15T05:38:55.959Z,100949.95
2018-09-15T05:40:02.598Z,100952.45
2018-09-15T05:41:10.473Z,100951.89
2018-09-15T05:42:17.628Z,100958.89
2018-09-15T05:43:24.003Z,100959.41
2018-09-15T05:44:30.488Z,100957.09
2018-09-15T05:45:36.931Z,100954.56
2018-09-15T05:46:43.227Z,100956.55
2018-09-15T05:47:49.648Z,100966.58
2018-09-15T05:48:56.067Z,100966.66
2018-09-15T05:50:02.509Z,100962.95
2018-09-15T05:51:08.779Z,100963.59
2018-09-15T05:52:15.199Z,100961.71
2018-09-15T05:53:21.582Z,100968.91
2018-09-15T05:54:27.959Z,100969.53
2018-09-15T05:55:34.369Z,100970.13
2018-09-15T05:56:41.164Z,100962.87
2018-09-15T05:57:47.814Z,100971.55
2018-09-15T05:58:54.117Z,100977.02
2018-09-15T06:00:00.363Z,100979.38
2018-09-15T06:01:07.759Z,100980.84
2018-09-15T06:02:14.793Z,100984.96
2018-09-15T06:03:21.439Z,100976.19
2018-09-15T06:04:28.847Z,100980.98
2018-09-15T06:05:35.432Z,100977.55
2018-09-15T06:06:42.204Z,100975.73
2018-09-15T06:07:48.878Z,100977.00
2018-09-15T06:08:55.310Z,100975.11
2018-09-15T06:10:02.364Z,100973.42
2018-09-15T06:11:09.190Z,100980.98
2018-09-15T06:12:16.934Z,100972.81
2018-09-15T06:13:24.242Z,100977.41
2018-09-15T06:14:31.656Z,100973.80
2018-09-15T06:15:38.228Z,100974.53
2018-09-15T06:16:45.444Z,100980.92
2018-09-15T06:17:51.561Z,100983.34
2018-09-15T06:18:59.450Z,100985.40
2018-09-15T06:20:05.630Z,100982.25
2018-09-15T06:21:12.007Z,100986.02
2018-09-15T06:22:19.116Z,100987.65
2018-09-15T06:23:27.747Z,100990.02
2018-09-15T06:24:34.374Z,100987.06
2018-09-15T06:25:40.721Z,100985.59
2018-09-15T06:26:46.846Z,100988.33
2018-09-15T06:27:53.645Z,100990.90
2018-09-15T06:28:59.927Z,100983.02
2018-09-15T06:30:06.005Z,100984.26
2018-09-15T06:31:12.861Z,100995.96
2018-09-15T06:32:19.414Z,100989.15
2018-09-15T06:33:26.171Z,100988.08
2018-09-15T06:34:33.071Z,100989.00
2018-09-15T06:35:39.315Z,100985.87
2018-09-15T06:36:47.934Z,100992.82
2018-09-15T06:37:55.095Z,100994.34
2018-09-15T06:39:02.666Z,100992.25
2018-09-15T06:40:09.772Z,101001.16
2018-09-15T06:41:17.310Z,101002.21
2018-09-15T06:42:24.573Z,100998.55
2018-09-15T06:43:31.849Z,101003.58
2018-09-15T06:44:39.379Z,101002.59
2018-09-15T06:45:46.946Z,101007.38
2018-09-15T06:46:54.848Z,101012.97
2018-09-15T06:48:02.168Z,101014.50
2018-09-15T06:49:08.995Z,101003.91
2018-09-15T06:50:16.567Z,101008.64
2018-09-15T06:51:24.070Z,101012.03
2018-09-15T06:52:31.589Z,101014.47
2018-09-15T06:53:38.743Z,101013.53
2018-09-15T06:54:47.023Z,101015.64
2018-09-15T06:55:54.211Z,101014.36
2018-09-15T06:57:01.626Z,101018.30
2018-09-15T06:58:09.667Z,101019.09
2018-09-15T06:59:16.589Z,101020.48
2018-09-15T07:00:23.557Z,101022.44
2018-09-15T07:01:30.909Z,101019.42
2018-09-15T07:02:42.902Z,101015.08
2018-09-15T07:03:50.882Z,101019.09
2018-09-15T07:04:58.006Z,101017.67
2018-09-15T07:06:05.656Z,101014.98
2018-09-15T07:07:13.245Z,101009.78
2018-09-15T07:08:20.577Z,101014.70
2018-09-15T07:09:27.906Z,101018.39
2018-09-15T07:10:35.146Z,101017.58
2018-09-15T07:11:42.320Z,101018.91
2018-09-15T07:12:49.541Z,101021.19
2018-09-15T07:13:58.639Z,101022.72
2018-09-15T07:15:05.064Z,101025.19
2018-09-15T07:16:11.726Z,101028.98
2018-09-15T07:17:18.497Z,101035.58
2018-09-15T07:18:25.060Z,101027.86
2018-09-15T07:19:31.879Z,101028.45
2018-09-15T07:20:38.414Z,101036.98
2018-09-15T07:21:45.200Z,101031.16
2018-09-15T07:22:51.975Z,101037.92
2018-09-15T07:23:59.033Z,101037.23
2018-09-15T07:25:04.625Z,101036.26
2018-09-15T07:26:10.938Z,101040.55
2018-09-15T07:27:17.688Z,101041.35
2018-09-15T07:28:24.624Z,101041.30
2018-09-15T07:29:30.957Z,101041.69
2018-09-15T07:30:37.466Z,101047.59
2018-09-15T07:31:44.080Z,101045.77
2018-09-15T07:32:51.194Z,101043.37
2018-09-15T07:33:58.066Z,101043.80
2018-09-15T07:35:04.797Z,101049.35
2018-09-15T07:36:11.621Z,101048.41
2018-09-15T07:37:18.038Z,101040.18
2018-09-15T07:38:24.812Z,101045.83
2018-09-15T07:39:31.721Z,101050.92
2018-09-15T07:40:38.390Z,101049.34
2018-09-15T07:41:45.607Z,101047.59
2018-09-15T07:42:52.128Z,101055.75
2018-09-15T07:43:59.058Z,101058.55
2018-09-15T07:45:06.240Z,101049.80
2018-09-15T07:46:12.882Z,101059.91
2018-09-15T07:47:19.798Z,101052.30
2018-09-15T07:48:26.656Z,101056.31
2018-09-15T07:49:33.321Z,101055.55
2018-09-15T07:50:39.558Z,101048.80
2018-09-15T07:51:45.853Z,101062.30
2018-09-15T07:52:52.313Z,101059.23
2018-09-15T07:53:58.591Z,101060.56
2018-09-15T07:55:04.609Z,101062.91
2018-09-15T07:56:10.513Z,101056.48
2018-09-15T07:57:16.731Z,101052.61
2018-09-15T07:58:22.981Z,101058.56
2018-09-15T07:59:29.248Z,101063.77
2018-09-15T08:00:35.493Z,101062.17
2018-09-15T08:01:41.740Z,101062.70
2018-09-15T08:02:47.969Z,101067.34
2018-09-15T08:03:53.994Z,101065.70
2018-09-15T08:05:00.275Z,101073.50
2018-09-15T08:06:06.136Z,101072.20
2018-09-15T08:07:12.343Z,101064.83
2018-09-15T08:08:19.728Z,101073.05
2018-09-15T08:09:25.995Z,101072.00
2018-09-15T08:10:32.224Z,101067.55
2018-09-15T08:11:38.454Z,101070.91
2018-09-15T08:12:44.672Z,101069.81
2018-09-15T08:13:50.935Z,101067.66
2018-09-15T08:14:57.268Z,101072.39
2018-09-15T08:16:03.244Z,101072.19
2018-09-15T08:17:09.110Z,101073.20
2018-09-15T08:18:15.390Z,101068.39
2018-09-15T08:19:21.319Z,101073.90
2018-09-15T08:20:27.541Z,101066.41
2018-09-15T08:21:33.773Z,101065.98
2018-09-15T08:22:39.672Z,101070.31
2018-09-15T08:23:45.881Z,101069.38
2018-09-15T08:24:52.129Z,101073.75
2018-09-15T08:25:58.347Z,101072.84
2018-09-15T08:27:04.601Z,101077.65
2018-09-15T08:28:10.854Z,101073.32
2018-09-15T08:29:17.105Z,101067.19
2018-09-15T08:30:23.342Z,101068.47
2018-09-15T08:31:29.547Z,101069.09
2018-09-15T08:32:35.760Z,101068.86
2018-09-15T08:33:41.956Z,101073.39
2018-09-15T08:34:48.220Z,101067.86
2018-09-15T08:35:54.438Z,101070.85
2018-09-15T08:37:00.676Z,101077.64
2018-09-15T08:38:06.898Z,101076.47
2018-09-15T08:39:13.147Z,101081.02
2018-09-15T08:40:19.388Z,101082.99
2018-09-15T08:41:25.451Z,101086.70
2018-09-15T08:42:31.832Z,101081.91
2018-09-15T08:43:38.066Z,101077.37
2018-09-15T08:44:44.331Z,101082.62
2018-09-15T08:45:50.577Z,101085.52
2018-09-15T08:46:56.786Z,101072.91
2018-09-15T08:48:03.026Z,101077.80
2018-09-15T08:49:08.921Z,101082.39
2018-09-15T08:50:14.904Z,101075.54
2018-09-15T08:51:21.132Z,101087.99
2018-09-15T08:52:27.401Z,101079.55
2018-09-15T08:53:33.652Z,101084.27
2018-09-15T08:54:39.621Z,101086.86
2018-09-15T08:55:45.543Z,101088.67
2018-09-15T08:56:51.760Z,101085.95
2018-09-15T08:57:57.976Z,101092.74
2018-09-15T08:59:03.830Z,101094.15
2018-09-15T09:00:10.076Z,101088.70
2018-09-15T09:01:16.292Z,101090.25
2018-09-15T09:02:22.556Z,101090.66
2018-09-15T09:03:28.799Z,101091.16
2018-09-15T09:04:35.061Z,101086.05
2018-09-15T09:05:41.373Z,101094.84
2018-09-15T09:06:47.596Z,101094.44
2018-09-15T09:07:53.819Z,101096.03
2018-09-15T09:09:00.033Z,101092.95
2018-09-15T09:10:05.644Z,101092.55
2018-09-15T09:11:11.799Z,101085.80
2018-09-15T09:12:18.237Z,101093.94
2018-09-15T09:13:24.483Z,101092.88
2018-09-15T09:14:30.705Z,101087.08
2018-09-15T09:15:36.951Z,101088.20
2018-09-15T09:16:43.162Z,101090.84
2018-09-15T09:17:49.419Z,101097.05
2018-09-15T09:18:55.802Z,101089.25
2018-09-15T09:20:02.138Z,101095.77
2018-09-15T09:21:08.137Z,101088.70
2018-09-15T09:22:14.344Z,101092.64
2018-09-15T09:23:20.564Z,101096.65
2018-09-15T09:24:26.851Z,101100.16
2018-09-15T09:25:33.116Z,101095.66
2018-09-15T09:26:39.619Z,101099.77
2018-09-15T09:27:46.056Z,101096.59
2018-09-15T09:28:52.300Z,101098.85
2018-09-15T09:29:58.529Z,101092.61
2018-09-15T09:31:04.963Z,101093.84
2018-09-15T09:32:11.191Z,101106.12
2018-09-15T09:33:17.743Z,101099.20
2018-09-15T09:34:24.094Z,101103.66
2018-09-15T09:35:30.320Z,101099.29
2018-09-15T09:36:36.535Z,101091.47
2018-09-15T09:37:42.780Z,101103.92
2018-09-15T09:38:48.992Z,101097.86
2018-09-15T09:39:55.243Z,101091.37
2018-09-15T09:41:01.445Z,101084.76
2018-09-15T09:42:07.103Z,101094.66
2018-09-15T09:43:13.096Z,101096.69
2018-09-15T09:44:19.298Z,101089.22
2018-09-15T09:45:25.545Z,101097.25
2018-09-15T09:46:31.756Z,101089.78
2018-09-15T09:47:37.962Z,101083.42
2018-09-15T09:48:44.222Z,101087.91
2018-09-15T09:49:50.502Z,101084.33
2018-09-15T09:50:56.751Z,101088.92
2018-09-15T09:52:02.980Z,101086.14
2018-09-15T09:53:09.237Z,101084.58
2018-09-15T09:54:15.528Z,101078.64
2018-09-15T09:55:21.765Z,101085.92
2018-09-15T09:56:28.044Z,101079.23
2018-09-15T09:57:34.288Z,101072.36
2018-09-15T09:58:40.479Z,101075.21
2018-09-15T09:59:46.461Z,101085.86
2018-09-15T10:00:52.477Z,101087.48
2018-09-15T10:01:58.452Z,101088.96
2018-09-15T10:03:04.666Z,101088.96
2018-09-15T10:04:10.901Z,101094.55
2018-09-15T10:05:17.142Z,101083.63
2018-09-15T10:06:23.408Z,101089.14
2018-09-15T10:07:29.673Z,101088.37
2018-09-15T10:08:35.893Z,101091.72
2018-09-15T10:09:42.120Z,101087.52
2018-09-15T10:10:48.367Z,101085.44
2018-09-15T10:11:54.599Z,101082.31
2018-09-15T10:13:00.792Z,101083.76
2018-09-15T10:14:06.631Z,101081.84
2018-09-15T10:15:12.886Z,101081.28
2018-09-15T10:16:19.156Z,101081.30
2018-09-15T10:17:25.550Z,101085.95
2018-09-15T10:18:31.570Z,101087.67
2018-09-15T10:19:37.811Z,101082.20
2018-09-15T10:20:44.069Z,101086.57
2018-09-15T10:21:50.310Z,101079.61
2018-09-15T10:22:56.572Z,101075.86
2018-09-15T10:24:02.811Z,101081.27
2018-09-15T10:25:09.012Z,101082.45
2018-09-15T10:26:15.252Z,101087.46
2018-09-15T10:27:21.465Z,101085.26
2018-09-15T10:28:27.688Z,101076.55
2018-09-15T10:29:33.924Z,101077.73
2018-09-15T10:30:40.185Z,101073.73
2018-09-15T10:31:46.441Z,101077.48
2018-09-15T10:32:52.670Z,101071.48
2018-09-15T10:33:58.872Z,101066.36
2018-09-15T10:35:04.413Z,101067.30
2018-09-15T10:36:10.656Z,101066.94
2018-09-15T10:37:16.888Z,101067.69
2018-09-15T10:38:23.138Z,101064.84
2018-09-15T10:39:29.546Z,101068.25
2018-09-15T10:40:35.819Z,101063.82
2018-09-15T10:41:42.036Z,101058.17
2018-09-15T10:42:48.257Z,101062.98
2018-09-15T10:43:54.463Z,101065.23
2018-09-15T10:45:00.671Z,101058.80
2018-09-15T10:46:06.908Z,101062.60
2018-09-15T10:47:13.124Z,101062.75
2018-09-15T10:48:19.360Z,101060.67
2018-09-15T10:49:25.591Z,101065.73
2018-09-15T10:50:31.814Z,101066.32
2018-09-15T10:51:38.069Z,101069.56
2018-09-15T10:52:44.043Z,101064.98
2018-09-15T10:53:50.053Z,101066.97
2018-09-15T10:54:56.281Z,101061.93
2018-09-15T10:56:02.540Z,101061.31
2018-09-15T10:57:08.789Z,101063.98
2018-09-15T10:58:15.047Z,101057.96
2018-09-15T10:59:21.257Z,101062.78
2018-09-15T11:00:27.578Z,101065.45
2018-09-15T11:01:34.032Z,101064.10
2018-09-15T11:02:40.254Z,101056.49
2018-09-15T11:03:46.513Z,101057.75
2018-09-15T11:04:52.749Z,101060.13
2018-09-15T11:05:59.064Z,101062.38
2018-09-15T11:07:05.094Z,101053.02
2018-09-15T11:08:11.312Z,101059.60
2018-09-15T11:09:17.505Z,101060.78
2018-09-15T11:10:23.722Z,101055.58
2018-09-15T11:11:29.952Z,101057.84
2018-09-15T11:12:36.177Z,101060.37
2018-09-15T11:13:42.482Z,101052.77
2018-09-15T11:14:48.881Z,101056.23
2018-09-15T11:15:55.176Z,101054.53
2018-09-15T11:17:01.420Z,101055.02
2018-09-15T11:18:07.667Z,101058.34
2018-09-15T11:19:13.888Z,101060.09
2018-09-15T11:20:20.087Z,101057.67
2018-09-15T11:21:26.322Z,101053.63
2018-09-15T11:22:32.558Z,101055.20
2018-09-15T11:23:38.837Z,101058.06
2018-09-15T11:24:45.053Z,101062.11
2018-09-15T11:25:51.018Z,101052.53
2018-09-15T11:26:57.276Z,101062.06
2018-09-15T11:28:03.481Z,101056.98
2018-09-15T11:29:09.770Z,101056.34
2018-09-15T11:30:16.296Z,101055.00
2018-09-15T11:31:22.537Z,101056.40
2018-09-15T11:32:28.803Z,101052.89
2018-09-15T11:33:35.008Z,101055.58
2018-09-15T11:34:41.229Z,101054.75
2018-09-15T11:35:47.428Z,101054.21
2018-09-15T11:36:53.681Z,101052.86
2018-09-15T11:37:59.891Z,101052.69
2018-09-15T11:39:05.429Z,101057.24
2018-09-15T11:40:12.163Z,101056.00
2018-09-15T11:41:19.025Z,101055.31
2018-09-15T11:42:25.371Z,101057.34
2018-09-15T11:43:31.573Z,101059.72
2018-09-15T11:44:37.804Z,101057.48
2018-09-15T11:45:44.046Z,101060.48
2018-09-15T11:46:50.305Z,101058.91
2018-09-15T11:47:56.589Z,101063.84
2018-09-15T11:49:03.021Z,101061.52
2018-09-15T11:50:08.550Z,101065.61
2018-09-15T11:51:14.765Z,101062.59
2018-09-15T11:52:21.020Z,101065.02
2018-09-15T11:53:27.265Z,101069.47
2018-09-15T11:54:33.273Z,101065.27
2018-09-15T11:55:39.272Z,101069.04
2018-09-15T11:56:45.546Z,101055.29
2018-09-15T11:57:51.778Z,101066.62
2018-09-15T11:58:58.002Z,101061.64
2018-09-15T12:00:03.680Z,101064.43
2018-09-15T12:01:09.727Z,101063.19
2018-09-15T12:02:15.761Z,101058.20
2018-09-15T12:03:22.001Z,101059.51
2018-09-15T12:04:28.225Z,101064.77
2018-09-15T12:05:34.446Z,101065.94
2018-09-15T12:06:40.323Z,101061.62
2018-09-15T12:07:46.609Z,101054.81
2018-09-15T12:08:53.029Z,101057.81
2018-09-15T12:09:59.235Z,101055.73
2018-09-15T12:11:05.515Z,101059.90
2018-09-15T12:12:11.783Z,101059.30
2018-09-15T12:13:18.037Z,101055.98
2018-09-15T12:14:24.274Z,101059.63
2018-09-15T12:15:30.491Z,101062.67
2018-09-15T12:16:36.764Z,101061.09
2018-09-15T12:17:42.983Z,101058.55
2018-09-15T12:18:49.243Z,101067.58
2018-09-15T12:19:55.479Z,101064.50
2018-09-15T12:21:01.693Z,101063.69
2018-09-15T12:22:07.931Z,101067.41
2018-09-15T12:23:14.166Z,101066.77
2018-09-15T12:24:20.460Z,101066.06
2018-09-15T12:25:26.694Z,101060.20
2018-09-15T12:26:32.917Z,101060.83
2018-09-15T12:27:39.202Z,101066.44
2018-09-15T12:28:45.716Z,101073.02
2018-09-15T12:29:51.915Z,101070.87
2018-09-15T12:30:58.143Z,101072.65
2018-09-15T12:32:04.387Z,101071.12
2018-09-15T12:33:10.615Z,101065.45
2018-09-15T12:34:16.831Z,101065.25
2018-09-15T12:35:23.109Z,101073.39
2018-09-15T12:36:29.355Z,101073.27
2018-09-15T12:37:35.639Z,101071.81